sensor_id;sensor_type;location;lat;lon;timestamp;P1;durP1;ratioP1;P2;durP2;ratioP2
32146;SDS011;32190;49.112;8.598;2024-01-15T00:00:57;16.83;;;8.00;;
32146;SDS011;32190;49.112;8.598;2024-01-15T00:06:50;18.35;;;8.15;;
32146;SDS011;32190;49.112;8.598;2024-01-15T00:12:41;17.42;;;8.52;;
32146;SDS011;32190;49.112;8.598;2024-01-15T00:18:32;18.05;;;8.00;;
32146;SDS011;32190;49.112;8.598;2024-01-15T00:24:22;15.98;;;9.02;;
32146;SDS011;32190;49.112;8.598;2024-01-15T00:30:13;13.88;;;7.50;;
32146;SDS011;32190;49.112;8.598;2024-01-15T00:36:04;16.08;;;8.10;;
32146;SDS011;32190;49.112;8.598;2024-01-15T00:41:54;16.67;;;7.50;;
32146;SDS011;32190;49.112;8.598;2024-01-15T00:47:45;12.23;;;7.00;;
32146;SDS011;32190;49.112;8.598;2024-01-15T00:53:36;15.95;;;7.75;;
32146;SDS011;32190;49.112;8.598;2024-01-15T00:59:26;12.70;;;7.80;;
32146;SDS011;32190;49.112;8.598;2024-01-15T01:05:17;18.85;;;8.75;;
32146;SDS011;32190;49.112;8.598;2024-01-15T01:11:12;16.13;;;7.28;;
32146;SDS011;32190;49.112;8.598;2024-01-15T01:17:03;14.52;;;7.65;;
32146;SDS011;32190;49.112;8.598;2024-01-15T01:22:54;12.52;;;6.55;;
32146;SDS011;32190;49.112;8.598;2024-01-15T01:28:44;14.95;;;7.68;;
32146;SDS011;32190;49.112;8.598;2024-01-15T01:34:39;15.55;;;7.78;;
32146;SDS011;32190;49.112;8.598;2024-01-15T01:46:24;13.73;;;6.75;;
32146;SDS011;32190;49.112;8.598;2024-01-15T01:52:17;16.02;;;6.88;;
32146;SDS011;32190;49.112;8.598;2024-01-15T01:58:08;17.98;;;9.18;;
32146;SDS011;32190;49.112;8.598;2024-01-15T02:03:58;16.95;;;8.23;;
32146;SDS011;32190;49.112;8.598;2024-01-15T02:09:49;16.08;;;8.88;;
32146;SDS011;32190;49.112;8.598;2024-01-15T02:15:40;12.95;;;7.03;;
32146;SDS011;32190;49.112;8.598;2024-01-15T02:21:31;12.27;;;7.32;;
32146;SDS011;32190;49.112;8.598;2024-01-15T02:27:22;16.00;;;7.55;;
32146;SDS011;32190;49.112;8.598;2024-01-15T02:33:12;12.02;;;6.13;;
32146;SDS011;32190;49.112;8.598;2024-01-15T02:39:03;12.93;;;6.85;;
32146;SDS011;32190;49.112;8.598;2024-01-15T02:44:54;12.55;;;6.00;;
32146;SDS011;32190;49.112;8.598;2024-01-15T02:50:44;14.70;;;7.38;;
32146;SDS011;32190;49.112;8.598;2024-01-15T02:56:35;13.05;;;6.32;;
32146;SDS011;32190;49.112;8.598;2024-01-15T03:02:28;16.33;;;7.75;;
32146;SDS011;32190;49.112;8.598;2024-01-15T03:08:18;15.10;;;6.90;;
32146;SDS011;32190;49.112;8.598;2024-01-15T03:14:09;15.93;;;6.72;;
32146;SDS011;32190;49.112;8.598;2024-01-15T03:19:59;11.60;;;6.15;;
32146;SDS011;32190;49.112;8.598;2024-01-15T03:25:50;15.23;;;7.93;;
32146;SDS011;32190;49.112;8.598;2024-01-15T03:31:40;13.80;;;6.57;;
32146;SDS011;32190;49.112;8.598;2024-01-15T03:37:31;11.20;;;6.60;;
32146;SDS011;32190;49.112;8.598;2024-01-15T03:43:22;12.25;;;6.38;;
32146;SDS011;32190;49.112;8.598;2024-01-15T03:49:12;11.60;;;6.45;;
32146;SDS011;32190;49.112;8.598;2024-01-15T03:55:03;13.00;;;6.28;;
32146;SDS011;32190;49.112;8.598;2024-01-15T04:00:54;11.00;;;6.65;;
32146;SDS011;32190;49.112;8.598;2024-01-15T04:06:45;11.98;;;6.15;;
32146;SDS011;32190;49.112;8.598;2024-01-15T04:12:36;15.18;;;7.10;;
32146;SDS011;32190;49.112;8.598;2024-01-15T04:18:26;11.25;;;6.75;;
32146;SDS011;32190;49.112;8.598;2024-01-15T04:24:17;8.93;;;5.45;;
32146;SDS011;32190;49.112;8.598;2024-01-15T04:30:08;12.48;;;5.97;;
32146;SDS011;32190;49.112;8.598;2024-01-15T04:36:01;10.43;;;5.55;;
32146;SDS011;32190;49.112;8.598;2024-01-15T04:41:53;12.02;;;7.30;;
32146;SDS011;32190;49.112;8.598;2024-01-15T04:47:44;12.23;;;6.80;;
32146;SDS011;32190;49.112;8.598;2024-01-15T04:53:34;12.98;;;7.05;;
32146;SDS011;32190;49.112;8.598;2024-01-15T04:59:25;11.63;;;6.38;;
32146;SDS011;32190;49.112;8.598;2024-01-15T05:05:16;12.77;;;6.85;;
32146;SDS011;32190;49.112;8.598;2024-01-15T05:11:06;10.85;;;5.72;;
32146;SDS011;32190;49.112;8.598;2024-01-15T05:16:57;10.02;;;5.18;;
32146;SDS011;32190;49.112;8.598;2024-01-15T05:22:48;9.23;;;5.30;;
32146;SDS011;32190;49.112;8.598;2024-01-15T05:28:40;13.55;;;5.95;;
32146;SDS011;32190;49.112;8.598;2024-01-15T05:34:32;7.80;;;5.43;;
32146;SDS011;32190;49.112;8.598;2024-01-15T05:40:23;11.20;;;6.05;;
32146;SDS011;32190;49.112;8.598;2024-01-15T05:46:13;9.60;;;6.20;;
32146;SDS011;32190;49.112;8.598;2024-01-15T05:52:05;11.43;;;5.40;;
32146;SDS011;32190;49.112;8.598;2024-01-15T05:57:56;9.60;;;5.32;;
32146;SDS011;32190;49.112;8.598;2024-01-15T06:03:46;9.30;;;5.47;;
32146;SDS011;32190;49.112;8.598;2024-01-15T06:09:37;11.10;;;6.28;;
32146;SDS011;32190;49.112;8.598;2024-01-15T06:15:28;9.82;;;5.53;;
32146;SDS011;32190;49.112;8.598;2024-01-15T06:21:19;9.93;;;5.80;;
32146;SDS011;32190;49.112;8.598;2024-01-15T06:27:10;8.13;;;4.45;;
32146;SDS011;32190;49.112;8.598;2024-01-15T06:33:01;9.93;;;5.55;;
32146;SDS011;32190;49.112;8.598;2024-01-15T06:38:51;9.32;;;5.60;;
32146;SDS011;32190;49.112;8.598;2024-01-15T06:44:42;9.85;;;6.03;;
32146;SDS011;32190;49.112;8.598;2024-01-15T06:50:32;10.50;;;5.93;;
32146;SDS011;32190;49.112;8.598;2024-01-15T06:56:23;10.38;;;5.82;;
32146;SDS011;32190;49.112;8.598;2024-01-15T07:02:14;11.77;;;5.82;;
32146;SDS011;32190;49.112;8.598;2024-01-15T07:08:04;10.82;;;6.05;;
32146;SDS011;32190;49.112;8.598;2024-01-15T07:13:55;8.82;;;5.65;;
32146;SDS011;32190;49.112;8.598;2024-01-15T07:19:46;11.75;;;7.22;;
32146;SDS011;32190;49.112;8.598;2024-01-15T07:25:36;9.68;;;5.93;;
32146;SDS011;32190;49.112;8.598;2024-01-15T07:31:27;11.35;;;5.97;;
32146;SDS011;32190;49.112;8.598;2024-01-15T07:37:17;11.10;;;6.20;;
32146;SDS011;32190;49.112;8.598;2024-01-15T07:43:08;11.90;;;6.43;;
32146;SDS011;32190;49.112;8.598;2024-01-15T07:48:58;11.18;;;5.80;;
32146;SDS011;32190;49.112;8.598;2024-01-15T07:54:49;9.77;;;5.40;;
32146;SDS011;32190;49.112;8.598;2024-01-15T08:00:40;11.95;;;6.55;;
32146;SDS011;32190;49.112;8.598;2024-01-15T08:06:30;9.43;;;5.45;;
32146;SDS011;32190;49.112;8.598;2024-01-15T08:12:21;10.13;;;5.63;;
32146;SDS011;32190;49.112;8.598;2024-01-15T08:18:12;10.55;;;5.78;;
32146;SDS011;32190;49.112;8.598;2024-01-15T08:24:03;8.55;;;5.55;;
32146;SDS011;32190;49.112;8.598;2024-01-15T08:29:53;9.88;;;5.47;;
32146;SDS011;32190;49.112;8.598;2024-01-15T08:35:44;10.90;;;5.72;;
32146;SDS011;32190;49.112;8.598;2024-01-15T08:41:35;10.27;;;5.43;;
32146;SDS011;32190;49.112;8.598;2024-01-15T08:47:26;9.68;;;5.20;;
32146;SDS011;32190;49.112;8.598;2024-01-15T08:53:17;8.18;;;4.90;;
32146;SDS011;32190;49.112;8.598;2024-01-15T08:59:16;9.75;;;5.00;;
32146;SDS011;32190;49.112;8.598;2024-01-15T09:05:14;11.43;;;6.45;;
32146;SDS011;32190;49.112;8.598;2024-01-15T09:11:05;10.13;;;5.15;;
32146;SDS011;32190;49.112;8.598;2024-01-15T09:17:04;8.90;;;5.55;;
32146;SDS011;32190;49.112;8.598;2024-01-15T09:28:54;7.43;;;5.05;;
32146;SDS011;32190;49.112;8.598;2024-01-15T09:34:48;8.77;;;5.55;;
32146;SDS011;32190;49.112;8.598;2024-01-15T09:40:39;11.38;;;5.85;;
32146;SDS011;32190;49.112;8.598;2024-01-15T09:46:51;9.70;;;5.90;;
32146;SDS011;32190;49.112;8.598;2024-01-15T09:52:42;11.65;;;5.68;;
32146;SDS011;32190;49.112;8.598;2024-01-15T09:58:34;14.57;;;6.20;;
32146;SDS011;32190;49.112;8.598;2024-01-15T10:04:45;8.43;;;5.00;;
32146;SDS011;32190;49.112;8.598;2024-01-15T10:10:44;11.27;;;6.78;;
32146;SDS011;32190;49.112;8.598;2024-01-15T10:22:25;12.60;;;7.20;;
32146;SDS011;32190;49.112;8.598;2024-01-15T10:28:17;8.95;;;5.65;;
32146;SDS011;32190;49.112;8.598;2024-01-15T10:34:10;11.57;;;5.72;;
32146;SDS011;32190;49.112;8.598;2024-01-15T10:40:18;8.10;;;4.93;;
32146;SDS011;32190;49.112;8.598;2024-01-15T10:46:09;7.70;;;4.82;;
32146;SDS011;32190;49.112;8.598;2024-01-15T10:52:04;9.10;;;4.78;;
32146;SDS011;32190;49.112;8.598;2024-01-15T10:57:54;7.38;;;5.35;;
32146;SDS011;32190;49.112;8.598;2024-01-15T11:03:46;8.75;;;4.75;;
32146;SDS011;32190;49.112;8.598;2024-01-15T11:16:03;8.98;;;5.28;;
32146;SDS011;32190;49.112;8.598;2024-01-15T11:28:46;7.85;;;4.78;;
32146;SDS011;32190;49.112;8.598;2024-01-15T11:40:56;5.45;;;4.03;;
32146;SDS011;32190;49.112;8.598;2024-01-15T11:46:59;9.88;;;4.65;;
32146;SDS011;32190;49.112;8.598;2024-01-15T11:53:33;7.00;;;4.00;;
32146;SDS011;32190;49.112;8.598;2024-01-15T11:59:47;6.65;;;4.53;;
32146;SDS011;32190;49.112;8.598;2024-01-15T12:12:03;7.65;;;4.50;;
32146;SDS011;32190;49.112;8.598;2024-01-15T12:18:01;6.07;;;4.47;;
32146;SDS011;32190;49.112;8.598;2024-01-15T12:23:52;8.07;;;4.43;;
32146;SDS011;32190;49.112;8.598;2024-01-15T12:29:44;8.13;;;3.40;;
32146;SDS011;32190;49.112;8.598;2024-01-15T12:35:41;6.90;;;4.40;;
32146;SDS011;32190;49.112;8.598;2024-01-15T12:41:31;6.75;;;4.25;;
32146;SDS011;32190;49.112;8.598;2024-01-15T12:47:23;6.78;;;4.20;;
32146;SDS011;32190;49.112;8.598;2024-01-15T12:53:14;7.13;;;3.95;;
32146;SDS011;32190;49.112;8.598;2024-01-15T12:59:05;5.35;;;3.20;;
32146;SDS011;32190;49.112;8.598;2024-01-15T13:04:55;5.88;;;4.13;;
32146;SDS011;32190;49.112;8.598;2024-01-15T13:10:49;3.75;;;3.10;;
32146;SDS011;32190;49.112;8.598;2024-01-15T13:16:42;5.25;;;3.30;;
32146;SDS011;32190;49.112;8.598;2024-01-15T13:22:33;5.53;;;4.03;;
32146;SDS011;32190;49.112;8.598;2024-01-15T13:28:23;4.72;;;3.17;;
32146;SDS011;32190;49.112;8.598;2024-01-15T13:34:14;5.68;;;3.30;;
32146;SDS011;32190;49.112;8.598;2024-01-15T13:40:04;5.40;;;3.85;;
32146;SDS011;32190;49.112;8.598;2024-01-15T13:45:57;6.00;;;3.45;;
32146;SDS011;32190;49.112;8.598;2024-01-15T13:51:48;4.35;;;2.67;;
32146;SDS011;32190;49.112;8.598;2024-01-15T13:57:39;4.13;;;2.88;;
32146;SDS011;32190;49.112;8.598;2024-01-15T14:03:30;2.78;;;2.47;;
32146;SDS011;32190;49.112;8.598;2024-01-15T14:09:20;3.20;;;2.78;;
32146;SDS011;32190;49.112;8.598;2024-01-15T14:15:11;3.42;;;2.42;;
32146;SDS011;32190;49.112;8.598;2024-01-15T14:21:02;4.70;;;2.78;;
32146;SDS011;32190;49.112;8.598;2024-01-15T14:26:53;2.47;;;2.25;;
32146;SDS011;32190;49.112;8.598;2024-01-15T14:32:44;4.18;;;2.80;;
32146;SDS011;32190;49.112;8.598;2024-01-15T14:38:34;3.28;;;2.50;;
32146;SDS011;32190;49.112;8.598;2024-01-15T14:44:25;2.90;;;2.17;;
32146;SDS011;32190;49.112;8.598;2024-01-15T14:50:16;3.65;;;2.38;;
32146;SDS011;32190;49.112;8.598;2024-01-15T14:56:06;2.03;;;1.83;;
32146;SDS011;32190;49.112;8.598;2024-01-15T15:01:57;2.70;;;2.20;;
32146;SDS011;32190;49.112;8.598;2024-01-15T15:07:48;2.90;;;2.33;;
32146;SDS011;32190;49.112;8.598;2024-01-15T15:13:39;2.95;;;2.25;;
32146;SDS011;32190;49.112;8.598;2024-01-15T15:19:30;2.25;;;2.03;;
32146;SDS011;32190;49.112;8.598;2024-01-15T15:25:21;2.10;;;1.80;;
32146;SDS011;32190;49.112;8.598;2024-01-15T15:31:12;3.90;;;2.88;;
32146;SDS011;32190;49.112;8.598;2024-01-15T15:37:02;2.92;;;2.40;;
32146;SDS011;32190;49.112;8.598;2024-01-15T15:42:53;3.15;;;2.00;;
32146;SDS011;32190;49.112;8.598;2024-01-15T15:48:43;2.33;;;2.05;;
32146;SDS011;32190;49.112;8.598;2024-01-15T15:54:34;2.58;;;2.38;;
32146;SDS011;32190;49.112;8.598;2024-01-15T16:00:25;3.92;;;2.72;;
32146;SDS011;32190;49.112;8.598;2024-01-15T16:06:19;5.85;;;3.15;;
32146;SDS011;32190;49.112;8.598;2024-01-15T16:12:10;5.03;;;3.55;;
32146;SDS011;32190;49.112;8.598;2024-01-15T16:18:02;3.03;;;2.30;;
32146;SDS011;32190;49.112;8.598;2024-01-15T16:23:52;4.43;;;2.80;;
32146;SDS011;32190;49.112;8.598;2024-01-15T16:29:43;4.28;;;3.15;;
32146;SDS011;32190;49.112;8.598;2024-01-15T16:35:33;4.22;;;2.92;;
32146;SDS011;32190;49.112;8.598;2024-01-15T16:41:24;3.22;;;2.70;;
32146;SDS011;32190;49.112;8.598;2024-01-15T16:47:15;3.08;;;2.60;;
32146;SDS011;32190;49.112;8.598;2024-01-15T16:53:05;3.35;;;2.83;;
32146;SDS011;32190;49.112;8.598;2024-01-15T16:58:56;3.33;;;2.42;;
32146;SDS011;32190;49.112;8.598;2024-01-15T17:04:46;4.30;;;3.40;;
32146;SDS011;32190;49.112;8.598;2024-01-15T17:10:37;3.03;;;2.38;;
32146;SDS011;32190;49.112;8.598;2024-01-15T17:16:27;3.58;;;2.78;;
32146;SDS011;32190;49.112;8.598;2024-01-15T17:22:18;4.40;;;2.80;;
32146;SDS011;32190;49.112;8.598;2024-01-15T17:28:08;2.88;;;2.45;;
32146;SDS011;32190;49.112;8.598;2024-01-15T17:33:59;3.28;;;2.55;;
32146;SDS011;32190;49.112;8.598;2024-01-15T17:39:50;2.38;;;2.10;;
32146;SDS011;32190;49.112;8.598;2024-01-15T17:45:40;3.45;;;2.40;;
32146;SDS011;32190;49.112;8.598;2024-01-15T17:51:32;2.35;;;1.95;;
32146;SDS011;32190;49.112;8.598;2024-01-15T17:57:23;2.40;;;2.20;;
32146;SDS011;32190;49.112;8.598;2024-01-15T18:03:14;3.03;;;2.33;;
32146;SDS011;32190;49.112;8.598;2024-01-15T18:09:04;2.45;;;2.20;;
32146;SDS011;32190;49.112;8.598;2024-01-15T18:14:56;2.75;;;2.40;;
32146;SDS011;32190;49.112;8.598;2024-01-15T18:20:46;2.15;;;1.95;;
32146;SDS011;32190;49.112;8.598;2024-01-15T18:26:37;3.33;;;2.53;;
32146;SDS011;32190;49.112;8.598;2024-01-15T18:32:29;3.08;;;2.40;;
32146;SDS011;32190;49.112;8.598;2024-01-15T18:38:20;2.25;;;2.05;;
32146;SDS011;32190;49.112;8.598;2024-01-15T18:44:11;3.35;;;2.17;;
32146;SDS011;32190;49.112;8.598;2024-01-15T18:50:02;3.05;;;2.35;;
32146;SDS011;32190;49.112;8.598;2024-01-15T18:55:53;3.38;;;2.15;;
32146;SDS011;32190;49.112;8.598;2024-01-15T19:01:45;3.45;;;2.30;;
32146;SDS011;32190;49.112;8.598;2024-01-15T19:07:36;3.25;;;2.47;;
32146;SDS011;32190;49.112;8.598;2024-01-15T19:13:28;2.00;;;1.88;;
32146;SDS011;32190;49.112;8.598;2024-01-15T19:19:19;3.33;;;2.13;;
32146;SDS011;32190;49.112;8.598;2024-01-15T19:25:11;2.10;;;1.92;;
32146;SDS011;32190;49.112;8.598;2024-01-15T19:31:01;2.95;;;2.17;;
32146;SDS011;32190;49.112;8.598;2024-01-15T19:36:52;2.65;;;2.20;;
32146;SDS011;32190;49.112;8.598;2024-01-15T19:42:43;4.13;;;2.13;;
32146;SDS011;32190;49.112;8.598;2024-01-15T19:48:34;2.15;;;1.95;;
32146;SDS011;32190;49.112;8.598;2024-01-15T19:54:34;2.67;;;2.22;;
32146;SDS011;32190;49.112;8.598;2024-01-15T20:00:32;3.53;;;2.25;;
32146;SDS011;32190;49.112;8.598;2024-01-15T20:06:22;2.55;;;2.03;;
32146;SDS011;32190;49.112;8.598;2024-01-15T20:12:14;2.85;;;2.38;;
32146;SDS011;32190;49.112;8.598;2024-01-15T20:18:08;2.72;;;2.40;;
32146;SDS011;32190;49.112;8.598;2024-01-15T20:30:35;2.20;;;2.00;;
32146;SDS011;32190;49.112;8.598;2024-01-15T20:36:25;2.22;;;1.95;;
32146;SDS011;32190;49.112;8.598;2024-01-15T20:42:21;3.33;;;2.38;;
32146;SDS011;32190;49.112;8.598;2024-01-15T20:48:11;2.53;;;2.28;;
32146;SDS011;32190;49.112;8.598;2024-01-15T20:54:05;3.33;;;2.10;;
32146;SDS011;32190;49.112;8.598;2024-01-15T21:00:01;1.80;;;1.70;;
32146;SDS011;32190;49.112;8.598;2024-01-15T21:06:06;4.03;;;2.55;;
32146;SDS011;32190;49.112;8.598;2024-01-15T21:12:04;3.50;;;2.40;;
32146;SDS011;32190;49.112;8.598;2024-01-15T21:18:04;2.85;;;2.30;;
32146;SDS011;32190;49.112;8.598;2024-01-15T21:23:59;3.78;;;3.00;;
32146;SDS011;32190;49.112;8.598;2024-01-15T21:29:50;2.63;;;2.35;;
32146;SDS011;32190;49.112;8.598;2024-01-15T21:35:40;3.35;;;2.55;;
32146;SDS011;32190;49.112;8.598;2024-01-15T21:41:31;3.78;;;2.83;;
32146;SDS011;32190;49.112;8.598;2024-01-15T21:47:22;3.47;;;2.47;;
32146;SDS011;32190;49.112;8.598;2024-01-15T21:53:20;2.45;;;2.13;;
32146;SDS011;32190;49.112;8.598;2024-01-15T21:59:16;3.03;;;2.58;;
32146;SDS011;32190;49.112;8.598;2024-01-15T22:05:13;3.03;;;2.13;;
32146;SDS011;32190;49.112;8.598;2024-01-15T22:11:11;3.33;;;2.20;;
32146;SDS011;32190;49.112;8.598;2024-01-15T22:17:04;4.57;;;2.22;;
32146;SDS011;32190;49.112;8.598;2024-01-15T22:22:58;3.63;;;2.33;;
32146;SDS011;32190;49.112;8.598;2024-01-15T22:28:54;4.03;;;2.50;;
32146;SDS011;32190;49.112;8.598;2024-01-15T22:34:45;2.78;;;2.08;;
32146;SDS011;32190;49.112;8.598;2024-01-15T22:40:42;2.88;;;2.50;;
32146;SDS011;32190;49.112;8.598;2024-01-15T22:46:43;3.78;;;1.95;;
32146;SDS011;32190;49.112;8.598;2024-01-15T22:52:44;3.50;;;2.40;;
32146;SDS011;32190;49.112;8.598;2024-01-15T22:58:35;2.63;;;2.10;;
32146;SDS011;32190;49.112;8.598;2024-01-15T23:04:28;2.38;;;1.67;;
32146;SDS011;32190;49.112;8.598;2024-01-15T23:10:29;1.75;;;1.60;;
32146;SDS011;32190;49.112;8.598;2024-01-15T23:16:20;5.13;;;2.30;;
32146;SDS011;32190;49.112;8.598;2024-01-15T23:22:25;2.88;;;2.25;;
32146;SDS011;32190;49.112;8.598;2024-01-15T23:28:16;2.60;;;1.88;;
32146;SDS011;32190;49.112;8.598;2024-01-15T23:34:07;2.58;;;2.03;;
32146;SDS011;32190;49.112;8.598;2024-01-15T23:39:58;2.50;;;1.73;;
32146;SDS011;32190;49.112;8.598;2024-01-15T23:45:49;2.85;;;2.08;;
32146;SDS011;32190;49.112;8.598;2024-01-15T23:51:40;2.38;;;2.00;;
32146;SDS011;32190;49.112;8.598;2024-01-15T23:57:30;3.72;;;2.13;;
